Time;durP1;ratioP1;P1;durP2;ratioP2;P2;SDS_P1;SDS_P2;PMS_P1;PMS_P2;Temp;Humidity;BMP_temperature;BMP_pressure;BME280_temperature;BME280_humidity;BME280_pressure;Samples;Min_cycle;Max_cycle;Signal;HPM_P1;HPM_P2
2023/10/12 00:02:39;;;;;;;;;;;;;;;16.29;89.42;98636.34;137333;1276;22269;-82
2023/10/12 00:05:45;;;;;;;;;;;;;;;16.30;89.96;98632.11;137311;1276;22240;-85
2023/10/12 00:08:48;;;;;;;;;;;;;;;16.62;89.90;98630.09;137385;1276;22265;-82
2023/10/12 00:11:57;;;;;;;;;;;;;;;16.65;88.22;98621.79;137284;1276;22264;-82
2023/10/12 00:15:04;;;;;;;;;;;;;;;16.57;88.24;98624.02;137312;1276;22646;-83
2023/10/12 00:18:08;;;;;;;;;;;;;;;16.50;88.42;98623.05;137336;1276;22270;-83
2023/10/12 00:21:15;;;;;;;;;;;;;;;16.47;88.90;98621.86;137326;1274;22828;-82
2023/10/12 00:24:18;;;;;;;;;;;;;;;16.47;88.97;98618.00;137320;1276;22403;-84
2023/10/12 00:27:21;;;;;;;;;;;;;;;16.46;88.90;98615.19;137360;1276;22411;-82
2023/10/12 00:30:23;;;;;;;;;;;;;;;16.44;88.83;98611.19;137314;1276;22756;-82
2023/10/12 00:33:25;;;;;;;;;;;;;;;16.43;88.76;98607.15;137319;1276;22263;-83
2023/10/12 00:36:28;;;;;;;;;;;;;;;16.40;88.87;98611.06;137334;1276;22281;-83
2023/10/12 00:39:44;;;;;;;;;;;;;;;16.38;88.89;98606.89;137318;1276;22294;-83
2023/10/12 00:42:51;;;;;;;;;;;;;;;16.53;90.96;98604.04;137375;1276;22400;-84
2023/10/12 00:45:53;;;;;;;;;;;;;;;17.32;90.44;98599.88;137320;1276;22265;-83
2023/10/12 00:49:13;;;;;;;;;;;;;;;18.34;89.44;98594.25;137376;1276;22909;-83
2023/10/12 00:52:23;;;;;;;;;;;;;;;19.50;84.40;98591.88;137332;1276;22377;-83
2023/10/12 00:55:35;;;;;;;;;;;;;;;20.07;78.97;98588.52;137314;1276;22413;-84
2023/10/12 00:58:41;;;;;;;;;;;;;;;19.94;78.69;98583.74;137360;1276;22301;-84
2023/10/12 01:01:44;;;;;;;;;;;;;;;20.14;76.94;98584.04;137383;1276;22263;-84
2023/10/12 01:04:48;;;;;;;;;;;;;;;20.71;76.97;98582.61;137362;1276;22216;-83
2023/10/12 01:07:53;;;;;;;;;;;;;;;21.03;74.06;98582.95;137300;1276;22263;-83
2023/10/12 01:10:57;;;;;;;;;;;;;;;20.69;73.04;98585.85;137349;1276;22233;-83
2023/10/12 01:14:09;;;;;;;;;;;;;;;20.11;71.92;98582.37;137320;1276;22365;-83
2023/10/12 01:17:17;;;;;;;;;;;;;;;19.10;72.73;98578.12;137342;1276;22698;-84
2023/10/12 01:20:26;;;;;;;;;;;;;;;18.35;75.06;98576.81;137324;1276;22176;-82
2023/10/12 01:23:29;;;;;;;;;;;;;;;17.79;76.93;98573.64;137280;1276;22790;-83
2023/10/12 01:26:32;;;;;;;;;;;;;;;17.43;78.45;98572.25;137309;1276;22285;-83
2023/10/12 01:29:36;;;;;;;;;;;;;;;17.16;79.63;98570.64;137321;1276;22228;-83
2023/10/12 01:32:38;;;;;;;;;;;;;;;16.95;81.05;98567.17;137282;1276;22291;-83
2023/10/12 01:35:48;;;;;;;;;;;;;;;16.76;82.10;98569.79;137310;1276;22275;-83
2023/10/12 01:38:50;;;;;;;;;;;;;;;16.63;83.19;98563.49;137349;1275;22260;-85
2023/10/12 01:41:55;;;;;;;;;;;;;;;16.55;84.12;98562.20;137420;1273;22210;-84
2023/10/12 01:44:59;;;;;;;;;;;;;;;16.49;84.51;98561.96;137457;1276;22400;-83
2023/10/12 01:48:08;;;;;;;;;;;;;;;16.41;85.34;98566.27;137454;1276;22227;-84
2023/10/12 01:51:16;;;;;;;;;;;;;;;16.34;85.40;98569.19;137436;1276;22294;-83
2023/10/12 01:54:24;;;;;;;;;;;;;;;16.30;86.10;98571.36;137437;1270;22400;-83
2023/10/12 01:57:32;;;;;;;;;;;;;;;16.27;86.81;98566.49;137323;1276;210557;-82
2023/10/12 02:00:52;;;;;;;;;;;;;;;16.27;86.84;98564.02;133249;1312;544062;-81
2023/10/12 02:04:03;;;;;;;;;;;;;;;16.24;87.04;98567.23;136414;1288;23002;-81
2023/10/12 02:07:10;;;;;;;;;;;;;;;16.24;87.11;98565.48;136335;1288;22511;-83
2023/10/12 02:10:13;;;;;;;;;;;;;;;16.24;87.57;98563.90;135379;1288;22531;-84
2023/10/12 02:13:16;;;;;;;;;;;;;;;16.23;87.70;98567.60;136708;1274;200776;-84
2023/10/12 02:16:24;;;;;;;;;;;;;;;16.22;88.09;98565.88;137022;1274;22625;-83
2023/10/12 02:19:38;;;;;;;;;;;;;;;16.21;88.43;98564.64;136745;1274;22928;-81
2023/10/12 02:22:43;;;;;;;;;;;;;;;16.36;88.40;98558.63;136853;1274;24173;-84
2023/10/12 02:25:53;;;;;;;;;;;;;;;16.33;88.20;98558.32;137452;1273;22552;-84
2023/10/12 02:29:05;;;;;;;;;;;;;;;16.28;88.09;98557.17;136814;1273;22527;-83
2023/10/12 02:32:17;;;;;;;;;;;;;;;16.24;88.70;98561.27;137023;1273;24179;-84
2023/10/12 02:35:22;;;;;;;;;;;;;;;16.21;88.82;98563.23;137130;1273;22530;-83
2023/10/12 02:41:52;;;;;;;;;;;;;;;16.18;89.65;98560.49;137204;1273;22471;-84
2023/10/12 02:45:10;;;;;;;;;;;;;;;16.19;89.36;98560.29;137325;1273;22539;-82
2023/10/12 02:48:23;;;;;;;;;;;;;;;16.18;89.95;98553.45;137078;1273;22515;-82
2023/10/12 02:51:25;;;;;;;;;;;;;;;16.19;89.84;98552.21;137254;1273;22642;-81
2023/10/12 02:54:42;;;;;;;;;;;;;;;16.18;90.13;98547.14;137475;1273;22558;-83
2023/10/12 02:57:53;;;;;;;;;;;;;;;16.19;90.13;98549.41;137216;1267;22526;-85
2023/10/12 03:00:56;;;;;;;;;;;;;;;16.18;89.98;98541.35;137305;1275;22677;-82
2023/10/12 03:03:58;;;;;;;;;;;;;;;16.16;90.04;98537.69;137218;1275;22556;-82
2023/10/12 03:07:10;;;;;;;;;;;;;;;16.16;90.21;98537.88;137176;1267;22570;-83
2023/10/12 03:10:25;;;;;;;;;;;;;;;16.15;90.13;98534.02;136933;1275;22524;-84
2023/10/12 03:13:34;;;;;;;;;;;;;;;16.12;90.38;98532.66;137058;1275;22491;-83
2023/10/12 03:16:41;;;;;;;;;;;;;;;16.11;90.65;98525.49;137045;1275;22493;-84
2023/10/12 03:19:55;;;;;;;;;;;;;;;16.10;90.62;98524.80;137002;1275;22509;-84
2023/10/12 03:22:59;;;;;;;;;;;;;;;16.08;90.66;98517.09;137046;1275;22544;-84
2023/10/12 03:26:07;;;;;;;;;;;;;;;16.06;90.84;98522.41;136513;1275;22633;-85
2023/10/12 03:29:18;;;;;;;;;;;;;;;16.04;90.92;98525.42;136573;1275;22567;-85
2023/10/12 03:32:23;;;;;;;;;;;;;;;16.03;90.97;98521.41;136783;1275;22743;-84
2023/10/12 03:35:37;;;;;;;;;;;;;;;16.00;91.14;98519.50;136682;1275;23091;-83
2023/10/12 03:38:43;;;;;;;;;;;;;;;15.97;91.46;98511.66;136893;1275;22565;-83
2023/10/12 03:42:09;;;;;;;;;;;;;;;15.96;91.52;98510.10;137194;1275;22477;-84
2023/10/12 03:45:24;;;;;;;;;;;;;;;15.94;91.65;98510.11;137213;1275;22499;-83
2023/10/12 03:48:47;;;;;;;;;;;;;;;15.93;92.13;98506.45;137279;1264;22288;-83
2023/10/12 03:51:57;;;;;;;;;;;;;;;15.95;91.83;98505.73;137151;1275;22987;-82
2023/10/12 03:55:17;;;;;;;;;;;;;;;15.95;91.92;98506.95;137272;1275;22282;-83
2023/10/12 03:58:23;;;;;;;;;;;;;;;15.98;92.30;98494.98;137210;1275;22434;-82
2023/10/12 04:01:26;;;;;;;;;;;;;;;16.22;92.34;98489.66;137237;1275;22328;-83
2023/10/12 04:04:30;;;;;;;;;;;;;;;16.45;91.33;98489.65;137282;1275;22744;-83
2023/10/12 04:08:00;;;;;;;;;;;;;;;16.62;90.31;98482.35;137272;1275;22307;-81
2023/10/12 04:14:47;;;;;;;;;;;;;;;16.91;89.09;98481.83;137285;1275;22764;-83
2023/10/12 04:17:53;;;;;;;;;;;;;;;16.96;88.41;98480.85;137291;1275;22360;-81
2023/10/12 04:20:56;;;;;;;;;;;;;;;17.00;88.07;98478.67;137312;1275;22353;-82
2023/10/12 04:31:20;;;;;;;;;;;;;;;17.25;87.61;98480.42;137233;1275;22461;-82
2023/10/12 04:34:06;;;;;;;;;;;;;;;17.28;86.56;98483.54;137292;1275;22581;-81
2023/10/12 04:37:10;;;;;;;;;;;;;;;17.25;86.26;98482.55;137351;1260;22577;-82
2023/10/12 04:40:33;;;;;;;;;;;;;;;17.16;86.19;98482.02;137313;1275;22527;-82
2023/10/12 04:43:38;;;;;;;;;;;;;;;17.02;86.31;98481.08;137284;1275;22487;-81
2023/10/12 04:46:47;;;;;;;;;;;;;;;17.02;86.91;98479.33;137230;1275;22769;-81
2023/10/12 04:49:57;;;;;;;;;;;;;;;17.09;86.70;98476.89;137321;1275;22342;-82
2023/10/12 04:53:08;;;;;;;;;;;;;;;17.09;86.51;98475.31;137308;1275;22950;-84
2023/10/12 04:56:11;;;;;;;;;;;;;;;17.10;86.44;98467.36;137065;1275;23058;-82
2023/10/12 04:59:16;;;;;;;;;;;;;;;17.17;86.98;98470.58;137369;1274;22596;-83
2023/10/12 05:02:28;;;;;;;;;;;;;;;17.24;87.03;98474.48;137410;1273;22499;-81
2023/10/12 05:08:56;;;;;;;;;;;;;;;17.23;86.29;98474.86;137430;1258;22342;-79
2023/10/12 05:11:58;;;;;;;;;;;;;;;17.23;86.51;98466.60;137420;1274;22351;-80
2023/10/12 05:15:11;;;;;;;;;;;;;;;17.20;86.27;98464.17;137443;1273;22291;-85
2023/10/12 05:18:18;;;;;;;;;;;;;;;17.25;87.77;98462.50;137282;1274;22924;-84
2023/10/12 05:21:23;;;;;;;;;;;;;;;17.34;85.98;98467.08;137318;1273;22605;-84
2023/10/12 05:24:27;;;;;;;;;;;;;;;17.30;86.47;98468.38;137402;1273;22938;-84
2023/10/12 05:27:39;;;;;;;;;;;;;;;17.36;87.39;98473.89;137098;1266;22502;-80
2023/10/12 05:30:47;;;;;;;;;;;;;;;17.50;86.83;98472.38;137422;1273;23302;-81
2023/10/12 05:34:20;;;;;;;;;;;;;;;17.56;86.47;98468.91;137390;1273;22471;-81
2023/10/12 05:37:37;;;;;;;;;;;;;;;17.58;85.55;98465.69;137400;1273;22331;-80
2023/10/12 05:40:43;;;;;;;;;;;;;;;17.52;84.70;98464.59;137466;1266;22496;-83
2023/10/12 05:43:46;;;;;;;;;;;;;;;17.42;85.55;98459.70;137551;1273;22322;-79
2023/10/12 05:46:52;;;;;;;;;;;;;;;17.46;85.47;98459.45;137512;1273;22394;-81
2023/10/12 05:49:57;;;;;;;;;;;;;;;17.48;86.02;98469.25;137494;1273;22360;-83
2023/10/12 05:53:00;;;;;;;;;;;;;;;17.57;85.04;98473.79;137574;1273;22291;-81
2023/10/12 05:56:03;;;;;;;;;;;;;;;17.60;84.96;98471.27;137515;1273;22289;-79
2023/10/12 05:59:09;;;;;;;;;;;;;;;17.60;84.61;98479.36;137437;1274;22420;-81
2023/10/12 06:02:13;;;;;;;;;;;;;;;17.68;85.00;98483.42;137206;1275;22391;-80
2023/10/12 06:05:17;;;;;;;;;;;;;;;17.83;85.49;98484.16;137219;1275;22262;-79
2023/10/12 06:08:20;;;;;;;;;;;;;;;17.93;84.51;98484.80;137213;1275;22370;-81
2023/10/12 06:11:25;;;;;;;;;;;;;;;18.01;83.80;98483.92;137244;1275;22738;-80
2023/10/12 06:14:28;;;;;;;;;;;;;;;18.04;83.82;98479.07;137240;1275;22274;-80
2023/10/12 06:17:31;;;;;;;;;;;;;;;18.06;82.60;98481.51;137261;1275;22352;-79
2023/10/12 06:20:40;;;;;;;;;;;;;;;18.07;82.74;98490.45;137256;1275;22336;-80
2023/10/12 06:23:44;;;;;;;;;;;;;;;18.13;81.73;98498.40;137225;1275;22294;-80
2023/10/12 06:26:47;;;;;;;;;;;;;;;18.05;80.83;98500.02;137282;1275;22365;-80
2023/10/12 06:29:49;;;;;;;;;;;;;;;18.04;82.35;98497.22;137089;1267;22431;-80
2023/10/12 06:32:52;;;;;;;;;;;;;;;18.16;82.39;98494.12;137215;1275;22385;-80
2023/10/12 06:36:00;;;;;;;;;;;;;;;18.19;81.54;98503.01;137287;1275;22313;-81
2023/10/12 06:40:07;;;;;;;;;;;;;;;18.20;80.68;98505.83;137286;1275;22349;-80
2023/10/12 06:42:27;;;;;;;;;;;;;;;18.21;81.79;98514.25;137266;1275;22326;-80
2023/10/12 06:45:30;;;;;;;;;;;;;;;18.26;80.12;98521.89;137306;1275;22396;-81
2023/10/12 06:48:44;;;;;;;;;;;;;;;18.31;80.11;98526.17;137266;1275;22303;-79
2023/10/12 06:51:53;;;;;;;;;;;;;;;18.37;80.15;98519.88;137306;1275;22335;-79
2023/10/12 06:54:59;;;;;;;;;;;;;;;18.59;79.80;98520.20;137426;1275;22360;-80
2023/10/12 06:58:02;;;;;;;;;;;;;;;18.68;78.19;98518.93;137427;1275;22440;-80
2023/10/12 07:01:18;;;;;;;;;;;;;;;18.83;78.75;98526.31;137407;1275;22485;-81
2023/10/12 07:04:26;;;;;;;;;;;;;;;18.92;78.26;98527.13;137364;1275;22321;-79
2023/10/12 07:07:29;;;;;;;;;;;;;;;19.03;77.64;98525.94;137354;1275;22715;-80
2023/10/12 07:10:32;;;;;;;;;;;;;;;19.09;78.27;98523.15;137274;1275;23103;-80
2023/10/12 07:13:39;;;;;;;;;;;;;;;19.12;76.19;98517.95;137361;1275;22494;-81
2023/10/12 07:16:54;;;;;;;;;;;;;;;19.09;78.13;98521.91;137334;1275;22367;-79
2023/10/12 07:19:57;;;;;;;;;;;;;;;19.14;76.93;98530.45;137288;1275;22351;-78
2023/10/12 07:23:05;;;;;;;;;;;;;;;19.03;76.85;98531.94;137287;1275;23057;-80
2023/10/12 07:26:12;;;;;;;;;;;;;;;18.97;77.23;98529.81;137253;1269;22881;-81
2023/10/12 07:29:19;;;;;;;;;;;;;;;18.99;77.01;98533.63;137332;1275;22967;-80
2023/10/12 07:32:31;;;;;;;;;;;;;;;19.07;77.98;98533.25;137155;1275;22560;-83
2023/10/12 07:35:35;;;;;;;;;;;;;;;19.38;78.80;98532.94;137246;1275;22564;-83
2023/10/12 07:38:40;;;;;;;;;;;;;;;19.45;75.62;98540.48;137216;1275;22492;-85
2023/10/12 07:41:53;;;;;;;;;;;;;;;19.41;75.57;98542.72;137326;1275;22524;-85
2023/10/12 07:44:59;;;;;;;;;;;;;;;19.55;75.85;98542.69;137322;1268;22284;-84
2023/10/12 07:48:02;;;;;;;;;;;;;;;19.60;73.72;98546.98;137154;1275;22643;-84
2023/10/12 07:51:15;;;;;;;;;;;;;;;19.61;74.09;98550.82;137268;1275;22306;-83
2023/10/12 07:54:46;;;;;;;;;;;;;;;19.72;74.24;98546.27;137179;1275;22558;-84
2023/10/12 07:57:48;;;;;;;;;;;;;;;19.87;72.87;98549.17;137284;1275;22351;-84
2023/10/12 08:01:12;;;;;;;;;;;;;;;19.97;72.04;98544.45;137277;1275;22431;-86
2023/10/12 08:04:29;;;;;;;;;;;;;;;20.09;71.14;98541.98;137203;1275;22933;-81
2023/10/12 08:07:55;;;;;;;;;;;;;;;20.10;70.14;98540.71;137246;1275;22350;-82
2023/10/12 08:11:01;;;;;;;;;;;;;;;20.08;70.76;98545.36;137293;1275;22980;-84
2023/10/12 08:14:19;;;;;;;;;;;;;;;20.19;70.84;98546.27;137292;1268;22448;-80
2023/10/12 08:17:33;;;;;;;;;;;;;;;20.38;69.60;98547.09;137218;1275;22897;-82
2023/10/12 08:20:53;;;;;;;;;;;;;;;20.52;68.84;98549.63;137284;1275;22842;-84
2023/10/12 08:24:02;;;;;;;;;;;;;;;20.87;68.84;98552.19;137252;1275;22346;-84
2023/10/12 08:27:06;;;;;;;;;;;;;;;21.32;67.48;98546.23;137264;1275;22913;-85
2023/10/12 08:30:21;;;;;;;;;;;;;;;21.58;66.50;98538.16;137270;1275;23008;-84
2023/10/12 08:37:07;;;;;;;;;;;;;;;22.08;65.32;98532.56;137229;1275;22494;-85
2023/10/12 08:40:18;;;;;;;;;;;;;;;22.27;63.16;98537.68;137230;1275;22520;-84
2023/10/12 08:43:42;;;;;;;;;;;;;;;22.18;62.71;98544.95;137283;1275;22815;-84
2023/10/12 08:47:00;;;;;;;;;;;;;;;22.27;63.43;98549.73;137306;1269;22758;-84
2023/10/12 08:50:05;;;;;;;;;;;;;;;22.40;61.97;98556.11;136972;1275;22513;-84
2023/10/12 08:53:07;;;;;;;;;;;;;;;22.35;61.48;98552.23;137286;1275;22515;-83
2023/10/12 08:56:11;;;;;;;;;;;;;;;22.40;61.56;98561.83;137378;1272;22655;-82
2023/10/12 08:59:14;;;;;;;;;;;;;;;22.43;61.14;98562.92;137274;1275;22578;-79
2023/10/12 09:02:20;;;;;;;;;;;;;;;22.53;61.15;98558.42;137142;1275;22494;-86
2023/10/12 09:05:25;;;;;;;;;;;;;;;22.68;60.29;98558.36;137328;1275;22795;-85
2023/10/12 09:08:46;;;;;;;;;;;;;;;22.82;60.80;98548.40;137329;1275;22364;-84
2023/10/12 09:11:59;;;;;;;;;;;;;;;22.98;59.40;98561.21;137226;1275;22477;-84
2023/10/12 09:15:08;;;;;;;;;;;;;;;22.99;57.27;98562.95;137313;1275;22351;-85
2023/10/12 09:18:11;;;;;;;;;;;;;;;22.92;57.24;98552.63;137261;1272;22325;-83
2023/10/12 09:21:23;;;;;;;;;;;;;;;22.96;57.16;98558.46;137295;1275;22361;-85
2023/10/12 09:24:29;;;;;;;;;;;;;;;23.03;56.80;98555.86;137275;1275;22960;-80
2023/10/12 09:27:37;;;;;;;;;;;;;;;23.14;57.32;98557.34;137270;1275;22351;-83
2023/10/12 09:30:44;;;;;;;;;;;;;;;23.16;56.40;98563.80;137263;1275;22405;-83
2023/10/12 09:33:54;;;;;;;;;;;;;;;23.17;56.53;98564.80;137262;1275;22765;-84
2023/10/12 09:36:57;;;;;;;;;;;;;;;23.07;56.06;98574.48;137158;1275;22554;-83
2023/10/12 09:39:59;;;;;;;;;;;;;;;23.14;56.98;98571.67;137263;1268;22800;-83
2023/10/12 09:43:06;;;;;;;;;;;;;;;23.18;55.87;98574.34;137238;1275;22883;-84
2023/10/12 09:46:09;;;;;;;;;;;;;;;23.03;55.73;98573.23;137271;1275;22892;-83
2023/10/12 09:49:21;;;;;;;;;;;;;;;23.11;56.20;98575.40;137226;1272;22676;-82
2023/10/12 09:52:23;;;;;;;;;;;;;;;23.17;54.67;98580.45;137252;1275;22296;-83
2023/10/12 09:55:26;;;;;;;;;;;;;;;23.12;55.38;98573.37;137231;1275;22381;-83
2023/10/12 09:58:32;;;;;;;;;;;;;;;23.31;55.00;98586.20;137259;1275;22438;-84
2023/10/12 10:01:49;;;;;;;;;;;;;;;23.39;53.95;98588.70;137262;1275;22289;-83
2023/10/12 10:05:00;;;;;;;;;;;;;;;23.33;53.58;98584.86;137238;1275;22691;-84
2023/10/12 10:08:10;;;;;;;;;;;;;;;23.29;53.84;98587.18;137245;1275;22901;-84
2023/10/12 10:11:13;;;;;;;;;;;;;;;23.49;53.60;98586.01;137049;1275;22493;-83
2023/10/12 10:14:16;;;;;;;;;;;;;;;23.78;52.63;98592.67;137330;1275;22813;-84
2023/10/12 10:17:21;;;;;;;;;;;;;;;24.00;52.96;98586.89;137328;1275;22713;-84
2023/10/12 10:23:51;;;;;;;;;;;;;;;23.59;52.90;98607.55;137288;1275;22293;-83
2023/10/12 10:26:56;;;;;;;;;;;;;;;23.19;53.72;98612.83;137314;1275;22285;-81
2023/10/12 10:30:00;;;;;;;;;;;;;;;22.83;54.46;98598.02;137316;1275;22438;-83
2023/10/12 10:33:02;;;;;;;;;;;;;;;22.81;54.97;98599.88;137327;1275;22454;-84
2023/10/12 10:36:10;;;;;;;;;;;;;;;22.87;55.38;98601.59;137352;1275;22766;-84
2023/10/12 10:42:31;;;;;;;;;;;;;;;22.72;55.75;98615.30;137344;1275;22574;-85
2023/10/12 10:45:37;;;;;;;;;;;;;;;22.65;55.65;98606.55;137316;1275;22342;-85
2023/10/12 10:48:40;;;;;;;;;;;;;;;22.71;56.46;98603.63;137265;1275;22336;-82
2023/10/12 10:51:43;;;;;;;;;;;;;;;22.88;56.40;98599.61;137309;1275;22325;-83
2023/10/12 10:54:56;;;;;;;;;;;;;;;22.99;56.74;98599.35;137292;1272;22299;-84
2023/10/12 10:58:00;;;;;;;;;;;;;;;23.12;56.21;98605.48;137312;1275;22477;-85
2023/10/12 11:01:05;;;;;;;;;;;;;;;23.24;56.02;98606.77;137385;1274;22530;-84
2023/10/12 11:04:17;;;;;;;;;;;;;;;23.11;55.00;98607.85;137347;1275;22408;-85
2023/10/12 11:07:20;;;;;;;;;;;;;;;22.70;55.65;98610.98;137409;1275;23008;-84
2023/10/12 11:10:31;;;;;;;;;;;;;;;22.53;56.98;98600.63;137367;1275;22315;-84
2023/10/12 11:13:33;;;;;;;;;;;;;;;22.57;57.42;98596.95;137390;1275;22947;-84
2023/10/12 11:16:36;;;;;;;;;;;;;;;22.49;57.61;98604.35;137339;1274;22330;-84
2023/10/12 11:19:41;;;;;;;;;;;;;;;22.29;57.54;98613.27;137385;1275;22360;-84
2023/10/12 11:22:43;;;;;;;;;;;;;;;22.11;58.09;98606.35;137329;1272;22392;-85
2023/10/12 11:25:46;;;;;;;;;;;;;;;21.88;58.89;98609.50;137389;1275;22428;-85
2023/10/12 11:28:49;;;;;;;;;;;;;;;21.61;59.44;98608.54;137383;1262;22440;-84
2023/10/12 11:31:52;;;;;;;;;;;;;;;21.49;60.29;98606.51;137373;1275;22316;-85
2023/10/12 11:34:54;;;;;;;;;;;;;;;21.51;60.55;98607.31;137331;1275;22356;-86
2023/10/12 11:37:57;;;;;;;;;;;;;;;21.46;60.75;98606.95;137387;1275;22311;-84
2023/10/12 11:41:00;;;;;;;;;;;;;;;21.44;60.90;98607.73;137369;1275;23253;-86
2023/10/12 11:44:05;;;;;;;;;;;;;;;21.50;60.97;98604.35;137344;1269;22325;-85
2023/10/12 11:47:08;;;;;;;;;;;;;;;21.51;61.17;98611.20;137355;1275;22956;-84
2023/10/12 11:50:13;;;;;;;;;;;;;;;21.46;60.84;98618.29;137352;1275;22333;-84
2023/10/12 11:53:17;;;;;;;;;;;;;;;21.46;60.98;98627.50;137350;1275;22527;-84
2023/10/12 11:56:22;;;;;;;;;;;;;;;21.30;61.37;98630.90;137397;1275;22268;-84
2023/10/12 11:59:27;;;;;;;;;;;;;;;21.24;61.36;98630.92;137282;1274;22919;-84
2023/10/12 12:02:29;;;;;;;;;;;;;;;21.36;60.41;98629.45;137308;1274;22363;-83
2023/10/12 12:05:33;;;;;;;;;;;;;;;21.33;60.71;98627.61;137310;1274;23025;-81
2023/10/12 12:08:35;;;;;;;;;;;;;;;21.36;60.58;98635.98;137333;1275;22329;-82
2023/10/12 12:11:38;;;;;;;;;;;;;;;21.41;60.76;98640.59;137282;1273;22300;-85
2023/10/12 12:14:46;;;;;;;;;;;;;;;21.56;60.91;98623.23;137352;1274;22387;-84
2023/10/12 12:17:48;;;;;;;;;;;;;;;21.89;60.73;98624.36;137319;1274;22375;-83
2023/10/12 12:20:51;;;;;;;;;;;;;;;22.05;60.64;98625.02;137279;1274;22373;-82
2023/10/12 12:23:54;;;;;;;;;;;;;;;21.89;61.01;98630.01;137236;1275;22313;-80
2023/10/12 12:26:56;;;;;;;;;;;;;;;21.71;61.41;98626.79;137194;1275;22339;-81
2023/10/12 12:29:59;;;;;;;;;;;;;;;21.46;61.84;98627.66;137128;1275;22401;-83
2023/10/12 12:33:03;;;;;;;;;;;;;;;21.38;62.56;98630.42;137219;1270;22771;-82
2023/10/12 12:36:09;;;;;;;;;;;;;;;21.45;63.24;98643.66;137284;1275;22353;-81
2023/10/12 12:39:12;;;;;;;;;;;;;;;21.37;62.35;98645.34;137258;1275;22349;-83
2023/10/12 12:42:16;;;;;;;;;;;;;;;21.06;62.72;98639.48;137320;1274;22770;-82
2023/10/12 12:45:20;;;;;;;;;;;;;;;20.93;63.40;98642.21;137355;1275;22741;-81
2023/10/12 12:48:22;;;;;;;;;;;;;;;20.82;64.04;98643.43;137357;1268;22423;-80
2023/10/12 12:51:25;;;;;;;;;;;;;;;20.75;64.45;98639.94;137433;1274;22285;-81
2023/10/12 12:54:31;;;;;;;;;;;;;;;20.67;64.97;98638.41;137478;1275;22353;-81
2023/10/12 12:57:34;;;;;;;;;;;;;;;20.62;65.19;98639.28;137418;1274;22310;-80
2023/10/12 13:00:36;;;;;;;;;;;;;;;20.48;65.98;98642.56;137334;1275;22397;-80
2023/10/12 13:03:39;;;;;;;;;;;;;;;20.29;67.04;98648.25;137252;1275;22316;-80
2023/10/12 13:06:41;;;;;;;;;;;;;;;20.09;68.78;98651.86;137248;1275;22309;-82
2023/10/12 13:09:47;;;;;;;;;;;;;;;19.91;70.68;98652.52;137242;1275;22285;-81
2023/10/12 13:12:51;;;;;;;;;;;;;;;19.68;72.52;98656.89;137186;1275;22363;-81
2023/10/12 13:15:53;;;;;;;;;;;;;;;19.47;74.07;98666.44;137224;1275;22386;-84
2023/10/12 13:18:56;;;;;;;;;;;;;;;19.40;75.26;98670.52;137227;1273;22697;-81
2023/10/12 13:21:59;;;;;;;;;;;;;;;19.27;76.73;98667.85;137224;1275;22336;-83
2023/10/12 13:25:01;;;;;;;;;;;;;;;19.01;78.10;98664.95;137159;1275;22737;-82
2023/10/12 13:28:05;;;;;;;;;;;;;;;18.90;79.32;98668.40;137212;1266;22441;-81
2023/10/12 13:31:10;;;;;;;;;;;;;;;18.81;80.79;98665.63;137193;1275;22355;-84
2023/10/12 13:34:17;;;;;;;;;;;;;;;18.65;81.95;98662.13;137242;1272;22298;-84
2023/10/12 13:37:23;;;;;;;;;;;;;;;18.49;83.55;98661.59;137260;1275;22815;-84
2023/10/12 13:40:26;;;;;;;;;;;;;;;18.35;84.37;98657.84;137258;1275;22427;-83
2023/10/12 13:43:31;;;;;;;;;;;;;;;18.39;85.73;98664.97;137274;1275;22770;-83
2023/10/12 13:46:38;;;;;;;;;;;;;;;18.31;86.38;98669.56;136958;1275;22505;-84
2023/10/12 13:49:54;;;;;;;;;;;;;;;18.51;87.23;98666.66;137283;1276;22773;-84
2023/10/12 13:53:00;;;;;;;;;;;;;;;18.51;87.21;98670.70;137276;1275;22812;-85
2023/10/12 13:56:04;;;;;;;;;;;;;;;18.49;88.43;98668.81;137254;1275;22373;-83
2023/10/12 13:59:09;;;;;;;;;;;;;;;18.54;88.02;98669.23;137205;1275;22425;-84
2023/10/12 14:02:13;;;;;;;;;;;;;;;18.56;88.91;98668.33;137392;1275;22331;-83
2023/10/12 14:05:30;;;;;;;;;;;;;;;18.73;89.76;98668.27;137360;1275;23084;-83
2023/10/12 14:08:34;;;;;;;;;;;;;;;19.14;89.23;98670.83;137381;1275;22428;-83
2023/10/12 14:11:37;;;;;;;;;;;;;;;19.31;89.59;98667.39;137434;1271;22302;-81
2023/10/12 14:14:39;;;;;;;;;;;;;;;19.60;89.10;98668.41;137275;1275;196053;-83
2023/10/12 14:17:42;;;;;;;;;;;;;;;19.59;88.27;98671.25;137412;1275;22370;-84
2023/10/12 14:20:44;;;;;;;;;;;;;;;19.52;88.02;98670.37;137447;1275;22336;-83
2023/10/12 14:23:48;;;;;;;;;;;;;;;19.43;87.85;98673.24;137406;1274;22706;-84
2023/10/12 14:26:51;;;;;;;;;;;;;;;18.97;87.74;98677.75;137397;1274;22477;-85
2023/10/12 14:29:55;;;;;;;;;;;;;;;18.64;88.41;98676.60;137377;1274;22399;-84
2023/10/12 14:32:57;;;;;;;;;;;;;;;18.36;90.22;98677.73;137368;1274;22636;-82
2023/10/12 14:36:00;;;;;;;;;;;;;;;18.23;91.76;98679.23;137413;1274;22904;-85
2023/10/12 14:39:04;;;;;;;;;;;;;;;18.12;93.30;98671.89;137429;1275;22459;-85
2023/10/12 14:42:08;;;;;;;;;;;;;;;18.31;97.10;98672.55;137456;1274;22603;-84
2023/10/12 14:45:15;;;;;;;;;;;;;;;18.65;95.31;98682.04;137362;1274;22529;-83
2023/10/12 14:48:18;;;;;;;;;;;;;;;18.44;93.39;98700.80;136738;1275;24273;-85
2023/10/12 14:51:25;;;;;;;;;;;;;;;18.02;96.27;98700.78;137408;1275;22562;-84
2023/10/12 14:54:28;;;;;;;;;;;;;;;18.00;97.92;98705.41;137351;1275;22529;-87
2023/10/12 14:57:30;;;;;;;;;;;;;;;17.85;98.08;98700.60;137453;1275;22335;-86
2023/10/12 15:00:33;;;;;;;;;;;;;;;17.90;100.00;98691.17;137236;1272;22542;-82
2023/10/12 15:03:36;;;;;;;;;;;;;;;17.98;100.00;98686.79;137490;1273;22538;-85
2023/10/12 15:06:45;;;;;;;;;;;;;;;18.10;100.00;98696.23;137426;1274;22534;-84
2023/10/12 15:09:49;;;;;;;;;;;;;;;18.48;100.00;98691.20;137513;1270;22783;-83
2023/10/12 15:12:52;;;;;;;;;;;;;;;18.79;100.00;98692.13;137439;1273;22291;-83
2023/10/12 15:15:56;;;;;;;;;;;;;;;19.10;100.00;98691.55;137552;1274;22337;-83
2023/10/12 15:19:01;;;;;;;;;;;;;;;19.34;99.76;98692.91;137520;1274;22280;-84
2023/10/12 15:22:06;;;;;;;;;;;;;;;19.44;96.95;98695.46;137534;1273;23056;-84
2023/10/12 15:25:08;;;;;;;;;;;;;;;19.32;95.26;98695.59;137496;1274;22373;-84
2023/10/12 15:28:11;;;;;;;;;;;;;;;19.34;96.03;98699.26;137499;1273;22918;-83
2023/10/12 15:31:16;;;;;;;;;;;;;;;19.52;95.52;98704.96;137427;1274;22793;-83
2023/10/12 15:34:18;;;;;;;;;;;;;;;19.60;93.54;98707.77;137511;1270;22337;-83
2023/10/12 15:37:23;;;;;;;;;;;;;;;19.54;93.20;98708.45;137465;1274;22314;-83
2023/10/12 15:40:26;;;;;;;;;;;;;;;19.52;93.08;98711.50;137475;1274;23161;-82
2023/10/12 15:43:28;;;;;;;;;;;;;;;19.56;93.20;98711.06;137362;1273;22369;-83
2023/10/12 15:46:31;;;;;;;;;;;;;;;19.50;92.31;98716.65;137532;1274;22348;-83
2023/10/12 15:49:33;;;;;;;;;;;;;;;19.43;92.08;98719.13;137467;1271;22516;-81
2023/10/12 15:52:36;;;;;;;;;;;;;;;19.36;93.14;98715.23;137539;1274;22311;-84
2023/10/12 15:55:55;;;;;;;;;;;;;;;19.49;92.32;98715.62;132433;1314;544101;-79
2023/10/12 15:59:01;;;;;;;;;;;;;;;19.39;91.91;98713.58;135690;1289;23040;-81
2023/10/12 16:02:04;;;;;;;;;;;;;;;19.36;92.55;98712.95;136157;1289;22484;-83
2023/10/12 16:05:06;;;;;;;;;;;;;;;19.35;93.17;98718.09;135971;1289;22487;-84
2023/10/12 16:08:13;;;;;;;;;;;;;;;19.33;92.92;98715.31;135829;1286;147295;-84
2023/10/12 16:11:16;;;;;;;;;;;;;;;19.43;93.64;98719.66;136321;1282;22543;-83
2023/10/12 16:14:18;;;;;;;;;;;;;;;19.42;91.54;98721.11;136530;1282;22551;-83
2023/10/12 16:17:21;;;;;;;;;;;;;;;19.04;91.13;98722.19;136345;1282;22507;-83
2023/10/12 16:20:25;;;;;;;;;;;;;;;18.97;93.67;98721.98;136217;1282;22550;-82
2023/10/12 16:23:27;;;;;;;;;;;;;;;19.03;92.50;98729.27;136504;1282;22512;-83
2023/10/12 16:26:30;;;;;;;;;;;;;;;18.37;91.22;98736.02;136661;1279;22951;-83